createdAt,value
2022-11-16T00:01:02.799Z,96305.38
2022-11-16T00:03:10.753Z,96308.88
2022-11-16T00:05:20.342Z,96305.00
2022-11-16T00:07:32.768Z,96308.16
2022-11-16T00:09:40.952Z,96312.38
2022-11-16T00:11:50.282Z,96311.91
2022-11-16T00:13:58.408Z,96320.66
2022-11-16T00:16:07.166Z,96308.75
2022-11-16T00:18:15.202Z,96316.25
2022-11-16T00:20:23.023Z,96306.00
2022-11-16T00:22:33.623Z,96305.56
2022-11-16T00:24:41.560Z,96306.81
2022-11-16T00:26:50.382Z,96298.31
2022-11-16T00:28:58.588Z,96292.44
2022-11-16T00:31:09.068Z,96294.84
2022-11-16T00:33:18.703Z,96295.22
2022-11-16T00:35:26.427Z,96300.38
2022-11-16T00:37:36.883Z,96291.13
2022-11-16T00:39:44.761Z,96296.63
2022-11-16T00:41:54.168Z,96286.16
2022-11-16T00:44:02.099Z,96289.63
2022-11-16T00:46:09.980Z,96286.34
2022-11-16T00:48:18.342Z,96290.00
2022-11-16T00:50:26.237Z,96290.28
2022-11-16T00:52:37.034Z,96284.66
2022-11-16T00:54:44.970Z,96274.44
2022-11-16T00:56:53.398Z,96275.28
2022-11-16T00:59:02.510Z,96262.38
2022-11-16T01:01:12.319Z,96253.31
2022-11-16T01:03:20.241Z,96248.44
2022-11-16T01:05:28.164Z,96234.25
2022-11-16T01:07:40.460Z,96229.31
2022-11-16T01:10:06.982Z,96209.47
2022-11-16T01:12:13.381Z,96207.91
2022-11-16T01:14:21.237Z,96203.81
2022-11-16T01:16:29.634Z,96206.81
2022-11-16T01:18:37.856Z,96187.94
2022-11-16T01:20:45.746Z,96189.59
2022-11-16T01:22:56.475Z,96189.16
2022-11-16T01:25:04.547Z,96184.06
2022-11-16T01:27:12.452Z,96194.81
2022-11-16T01:29:24.538Z,96186.25
2022-11-16T01:31:36.234Z,96188.03
2022-11-16T01:33:46.659Z,96175.50
2022-11-16T01:36:15.297Z,96171.94
2022-11-16T01:38:29.846Z,96170.56
2022-11-16T01:40:39.546Z,96179.72
2022-11-16T01:42:48.187Z,96167.69
2022-11-16T01:45:11.642Z,96179.72
2022-11-16T01:47:21.281Z,96189.22
2022-11-16T01:49:32.978Z,96184.41
2022-11-16T01:51:44.592Z,96189.66
2022-11-16T01:53:57.037Z,96180.78
2022-11-16T01:56:05.198Z,96170.56
2022-11-16T01:58:30.508Z,96171.50
2022-11-16T02:00:46.634Z,96160.72
2022-11-16T02:03:20.969Z,96173.13
2022-11-16T02:05:44.273Z,96173.69
2022-11-16T02:08:20.516Z,96166.59
2022-11-16T02:10:44.300Z,96159.63
2022-11-16T02:13:07.732Z,96151.66
2022-11-16T02:15:30.863Z,96152.41
2022-11-16T02:18:02.964Z,96151.06
2022-11-16T02:20:41.856Z,96153.78
2022-11-16T02:23:08.123Z,96153.59
2022-11-16T02:25:23.019Z,96149.97
2022-11-16T02:27:53.084Z,96161.00
2022-11-16T02:30:07.815Z,96152.38
2022-11-16T02:32:23.872Z,96146.88
2022-11-16T02:34:37.917Z,96150.97
2022-11-16T02:36:50.045Z,96160.72
2022-11-16T02:39:04.168Z,96160.06
2022-11-16T02:41:15.815Z,96149.13
2022-11-16T02:43:26.881Z,96156.59
2022-11-16T02:45:41.510Z,96157.91
2022-11-16T02:47:52.205Z,96157.22
2022-11-16T02:50:05.661Z,96158.75
2022-11-16T02:52:16.658Z,96162.72
2022-11-16T02:54:26.007Z,96156.38
2022-11-16T02:56:45.937Z,96157.81
2022-11-16T02:58:54.548Z,96153.72
2022-11-16T03:01:09.175Z,96153.94
2022-11-16T03:03:30.182Z,96159.72
2022-11-16T03:05:44.337Z,96155.88
2022-11-16T03:07:56.463Z,96151.28
2022-11-16T03:10:07.401Z,96146.25
2022-11-16T03:12:18.784Z,96148.63
2022-11-16T03:14:30.713Z,96144.97
2022-11-16T03:16:44.202Z,96145.97
2022-11-16T03:18:54.605Z,96138.53
2022-11-16T03:21:11.947Z,96142.50
2022-11-16T03:23:21.351Z,96145.38
2022-11-16T03:25:35.812Z,96139.13
2022-11-16T03:27:51.328Z,96143.59
2022-11-16T03:30:06.844Z,96137.69
2022-11-16T03:32:23.665Z,96137.31
2022-11-16T03:34:38.328Z,96133.69
2022-11-16T03:36:49.549Z,96129.63
2022-11-16T03:39:03.546Z,96129.06
2022-11-16T03:41:15.931Z,96126.50
2022-11-16T03:43:24.278Z,96120.38
2022-11-16T03:45:34.385Z,96118.69
2022-11-16T03:47:47.671Z,96114.00
2022-11-16T03:49:56.382Z,96110.50
2022-11-16T03:52:05.365Z,96121.22
2022-11-16T03:54:14.439Z,96112.75
2022-11-16T03:56:23.713Z,96113.56
2022-11-16T03:58:32.047Z,96110.81
2022-11-16T04:00:41.565Z,96118.78
2022-11-16T04:02:55.569Z,96121.44
2022-11-16T04:05:17.642Z,96118.78
2022-11-16T04:07:37.962Z,96126.31
2022-11-16T04:09:58.219Z,96124.28
2022-11-16T04:12:19.225Z,96128.81
2022-11-16T04:14:41.800Z,96130.09
2022-11-16T04:17:05.184Z,96133.03
2022-11-16T04:19:28.470Z,96135.88
2022-11-16T04:22:01.740Z,96142.84
2022-11-16T04:24:17.304Z,96154.19
2022-11-16T04:26:45.799Z,96151.25
2022-11-16T04:28:51.096Z,96156.31
2022-11-16T04:31:14.838Z,96150.03
2022-11-16T04:33:40.217Z,96151.16
2022-11-16T04:36:05.939Z,96155.53
2022-11-16T04:38:15.271Z,96155.63
2022-11-16T04:40:24.946Z,96143.81
2022-11-16T04:42:31.233Z,96148.28
2022-11-16T04:44:52.141Z,96153.81
2022-11-16T04:47:09.691Z,96151.91
2022-11-16T04:49:19.643Z,96161.59
2022-11-16T04:51:31.060Z,96174.31
2022-11-16T04:53:40.078Z,96173.28
2022-11-16T04:56:00.840Z,96179.56
2022-11-16T04:58:10.572Z,96171.63
2022-11-16T05:00:20.743Z,96170.25
2022-11-16T05:02:30.328Z,96165.72
2022-11-16T05:04:40.696Z,96172.66
2022-11-16T05:06:51.927Z,96166.38
2022-11-16T05:09:00.276Z,96167.78
2022-11-16T05:11:09.308Z,96174.31
2022-11-16T05:13:17.513Z,96171.97
2022-11-16T05:15:25.919Z,96171.13
2022-11-16T05:17:37.611Z,96174.91
2022-11-16T05:20:02.776Z,96174.97
2022-11-16T05:22:18.419Z,96170.25
2022-11-16T05:24:36.334Z,96177.22
2022-11-16T05:26:45.974Z,96166.28
2022-11-16T05:28:53.759Z,96178.13
2022-11-16T05:31:02.005Z,96176.19
2022-11-16T05:33:15.292Z,96179.47
2022-11-16T05:35:23.214Z,96173.97
2022-11-16T05:37:34.012Z,96185.66
2022-11-16T05:39:43.188Z,96177.91
2022-11-16T05:41:51.858Z,96175.91
2022-11-16T05:43:59.930Z,96175.50
2022-11-16T05:46:09.569Z,96171.09
2022-11-16T05:48:20.097Z,96164.97
2022-11-16T05:50:29.095Z,96168.88
2022-11-16T05:52:55.664Z,96169.56
2022-11-16T05:55:04.925Z,96159.53
2022-11-16T05:57:17.554Z,96164.84
2022-11-16T05:59:26.319Z,96168.91
2022-11-16T06:01:37.030Z,96164.25
2022-11-16T06:03:45.151Z,96164.25
2022-11-16T06:05:54.417Z,96163.56
2022-11-16T06:08:05.078Z,96166.31
2022-11-16T06:10:14.263Z,96160.56
2022-11-16T06:12:26.529Z,96153.13
2022-11-16T06:14:37.528Z,96155.78
2022-11-16T06:16:46.497Z,96163.97
2022-11-16T06:18:54.397Z,96165.69
2022-11-16T06:21:02.345Z,96170.53
2022-11-16T06:23:13.006Z,96165.25
2022-11-16T06:25:21.326Z,96160.63
2022-11-16T06:27:29.321Z,96168.19
2022-11-16T06:29:37.117Z,96173.75
2022-11-16T06:31:46.660Z,96167.38
2022-11-16T06:33:55.850Z,96166.84
2022-11-16T06:36:07.763Z,96167.63
2022-11-16T06:38:23.438Z,96162.75
2022-11-16T06:40:34.348Z,96163.34
2022-11-16T06:42:44.724Z,96162.81
2022-11-16T06:44:54.814Z,96172.19
2022-11-16T06:47:08.215Z,96167.16
2022-11-16T06:49:17.138Z,96176.81
2022-11-16T06:51:26.386Z,96174.03
2022-11-16T06:53:37.268Z,96177.97
2022-11-16T06:55:45.719Z,96175.59
2022-11-16T06:57:54.085Z,96179.09
2022-11-16T07:00:02.178Z,96191.38
2022-11-16T07:02:13.867Z,96185.38
2022-11-16T07:04:22.558Z,96195.63
2022-11-16T07:06:35.847Z,96190.88
2022-11-16T07:08:48.655Z,96193.25
2022-11-16T07:11:05.240Z,96195.22
2022-11-16T07:13:14.528Z,96200.78
2022-11-16T07:15:23.010Z,96202.91
2022-11-16T07:17:31.078Z,96209.78
2022-11-16T07:19:40.249Z,96209.44
2022-11-16T07:21:48.594Z,96222.25
2022-11-16T07:24:01.931Z,96228.06
2022-11-16T07:26:12.120Z,96230.31
2022-11-16T07:28:26.169Z,96237.34
2022-11-16T07:30:34.016Z,96236.38
2022-11-16T07:32:54.550Z,96244.44
2022-11-16T07:35:22.359Z,96244.06
2022-11-16T07:37:31.343Z,96244.19
2022-11-16T07:39:42.544Z,96251.19
2022-11-16T07:41:53.378Z,96249.44
2022-11-16T07:44:20.097Z,96248.28
2022-11-16T07:46:47.064Z,96251.19
2022-11-16T07:48:56.878Z,96258.69
2022-11-16T07:51:40.456Z,96261.63
2022-11-16T07:54:01.918Z,96268.66
2022-11-16T07:56:14.179Z,96268.78
2022-11-16T07:58:23.153Z,96269.38
2022-11-16T08:00:31.645Z,96266.19
2022-11-16T08:02:49.175Z,96275.03
2022-11-16T08:05:01.602Z,96274.00
2022-11-16T08:07:10.225Z,96276.22
2022-11-16T08:09:28.484Z,96273.75
2022-11-16T08:11:38.979Z,96279.13
2022-11-16T08:13:47.966Z,96284.16
2022-11-16T08:15:55.916Z,96286.56
2022-11-16T08:18:03.821Z,96296.53
2022-11-16T08:20:13.368Z,96291.75
2022-11-16T08:22:22.476Z,96300.59
2022-11-16T08:24:30.416Z,96298.59
2022-11-16T08:26:40.909Z,96309.25
2022-11-16T08:28:54.688Z,96317.25
2022-11-16T08:31:11.776Z,96331.69
2022-11-16T08:33:21.488Z,96345.94
2022-11-16T08:35:29.523Z,96360.13
2022-11-16T08:37:37.494Z,96377.03
2022-11-16T08:39:45.398Z,96378.03
2022-11-16T08:41:56.293Z,96388.16
2022-11-16T08:44:04.309Z,96399.66
2022-11-16T08:46:15.140Z,96422.22
2022-11-16T08:48:25.159Z,96430.03
2022-11-16T08:50:55.574Z,96434.25
2022-11-16T08:53:03.964Z,96443.94
2022-11-16T08:55:14.202Z,96445.50
2022-11-16T08:57:29.534Z,96442.66
2022-11-16T08:59:45.725Z,96439.47
2022-11-16T09:01:55.032Z,96446.75
2022-11-16T09:04:03.373Z,96445.09
2022-11-16T09:06:12.740Z,96455.72
2022-11-16T09:08:20.641Z,96459.09
2022-11-16T09:10:28.554Z,96455.59
2022-11-16T09:12:41.061Z,96459.97
2022-11-16T09:14:48.894Z,96458.56
2022-11-16T09:16:58.810Z,96467.53
2022-11-16T09:19:06.747Z,96464.44
2022-11-16T09:21:14.527Z,96469.72
2022-11-16T09:23:25.525Z,96476.81
2022-11-16T09:25:33.818Z,96463.75
2022-11-16T09:27:45.921Z,96463.91
2022-11-16T09:29:53.658Z,96467.28
2022-11-16T09:32:02.354Z,96456.88
2022-11-16T09:34:11.535Z,96471.59
2022-11-16T09:36:20.799Z,96476.06
2022-11-16T09:38:40.637Z,96480.69
2022-11-16T09:40:56.809Z,96479.75
2022-11-16T09:43:16.242Z,96488.16
2022-11-16T09:45:34.057Z,96493.97
2022-11-16T09:47:49.897Z,96493.53
2022-11-16T09:50:03.939Z,96495.31
2022-11-16T09:52:23.520Z,96495.03
2022-11-16T09:54:37.818Z,96486.03
2022-11-16T09:56:49.889Z,96488.84
2022-11-16T09:59:12.230Z,96488.38
2022-11-16T10:01:29.030Z,96477.78
2022-11-16T10:03:44.063Z,96475.81
2022-11-16T10:06:00.982Z,96483.59
2022-11-16T10:08:16.084Z,96481.56
2022-11-16T10:10:34.946Z,96476.81
2022-11-16T10:12:48.503Z,96467.63
2022-11-16T10:15:14.322Z,96466.00
2022-11-16T10:17:32.316Z,96462.75
2022-11-16T10:19:50.692Z,96465.44
2022-11-16T10:22:04.754Z,96459.41
2022-11-16T10:24:42.772Z,96463.03
2022-11-16T10:26:59.642Z,96451.69
2022-11-16T10:29:23.331Z,96452.84
2022-11-16T10:31:51.655Z,96452.53
2022-11-16T10:34:01.570Z,96439.75
2022-11-16T10:36:14.600Z,96445.09
2022-11-16T10:38:27.271Z,96436.97
2022-11-16T10:40:41.588Z,96430.91
2022-11-16T10:42:57.480Z,96418.97
2022-11-16T10:45:18.055Z,96415.63
2022-11-16T10:47:35.847Z,96399.50
2022-11-16T10:49:53.255Z,96391.69
2022-11-16T10:52:01.896Z,96394.91
2022-11-16T10:54:16.148Z,96412.28
2022-11-16T10:56:27.011Z,96401.63
2022-11-16T10:58:52.736Z,96393.09
2022-11-16T11:01:00.656Z,96402.06
2022-11-16T11:03:12.389Z,96405.56
2022-11-16T11:05:23.519Z,96405.41
2022-11-16T11:07:33.838Z,96403.84
2022-11-16T11:09:45.884Z,96400.19
2022-11-16T11:12:35.506Z,96403.91
2022-11-16T11:14:44.619Z,96411.88
2022-11-16T11:16:55.798Z,96415.69
2022-11-16T11:19:27.575Z,96410.72
2022-11-16T11:21:35.541Z,96404.00
2022-11-16T11:23:50.878Z,96402.38
2022-11-16T11:26:00.484Z,96392.13
2022-11-16T11:28:18.590Z,96389.16
2022-11-16T11:30:26.927Z,96386.34
2022-11-16T11:32:37.456Z,96384.00
2022-11-16T11:34:50.788Z,96384.25
2022-11-16T11:37:02.606Z,96375.59
2022-11-16T11:39:29.265Z,96389.84
2022-11-16T11:41:40.496Z,96386.66
2022-11-16T11:44:04.550Z,96389.84
2022-11-16T11:46:18.225Z,96389.16
2022-11-16T11:48:36.194Z,96390.53
2022-11-16T11:50:54.076Z,96395.03
2022-11-16T11:53:06.989Z,96397.81
2022-11-16T11:55:20.713Z,96394.03
2022-11-16T11:57:28.553Z,96405.09
2022-11-16T11:59:36.467Z,96399.72
2022-11-16T12:02:23.667Z,96401.09
2022-11-16T12:04:54.397Z,96400.88
2022-11-16T12:07:14.270Z,96405.31
2022-11-16T12:09:40.279Z,96406.38
2022-11-16T12:12:01.578Z,96398.38
2022-11-16T12:14:23.179Z,96402.78
2022-11-16T12:16:40.078Z,96406.28
2022-11-16T12:19:07.541Z,96394.59
2022-11-16T12:21:16.732Z,96389.25
2022-11-16T12:23:50.910Z,96385.53
2022-11-16T12:26:07.515Z,96389.53
2022-11-16T12:28:28.210Z,96388.69
2022-11-16T12:30:42.305Z,96383.63
2022-11-16T12:33:05.348Z,96380.50
2022-11-16T12:35:34.195Z,96378.88
2022-11-16T12:37:52.762Z,96375.72
2022-11-16T12:40:22.349Z,96369.91
2022-11-16T12:42:44.004Z,96379.38
2022-11-16T12:45:16.174Z,96374.75
2022-11-16T12:47:35.494Z,96374.91
2022-11-16T12:50:09.924Z,96371.00
2022-11-16T12:52:35.130Z,96362.84
2022-11-16T12:55:27.329Z,96365.97
2022-11-16T12:57:50.417Z,96364.59
2022-11-16T13:00:10.852Z,96348.03
2022-11-16T13:02:37.631Z,96349.06
2022-11-16T13:04:48.941Z,96361.69
2022-11-16T13:07:10.917Z,96357.50
2022-11-16T13:09:23.534Z,96359.59
2022-11-16T13:11:35.638Z,96355.53
2022-11-16T13:13:53.428Z,96361.97
2022-11-16T13:16:03.445Z,96364.09
2022-11-16T13:18:17.341Z,96357.34
2022-11-16T13:20:36.889Z,96364.78
2022-11-16T13:22:53.458Z,96362.13
2022-11-16T13:25:09.208Z,96359.59
2022-11-16T13:27:32.963Z,96350.88
2022-11-16T13:29:49.003Z,96347.53
2022-11-16T13:32:05.393Z,96347.25
2022-11-16T13:34:18.999Z,96331.69
2022-11-16T13:36:43.793Z,96337.72
2022-11-16T13:38:56.465Z,96334.22
2022-11-16T13:41:33.892Z,96332.97
2022-11-16T13:43:51.076Z,96325.25
2022-11-16T13:46:03.622Z,96341.91
2022-11-16T13:48:21.101Z,96343.84
2022-11-16T13:50:37.906Z,96347.03
2022-11-16T13:53:40.907Z,96342.94
2022-11-16T13:55:29.581Z,96340.03
2022-11-16T13:57:38.331Z,96335.38
2022-11-16T13:59:46.296Z,96337.66
2022-11-16T14:02:01.991Z,96340.47
2022-11-16T14:04:38.329Z,96338.34
2022-11-16T14:07:01.708Z,96340.03
2022-11-16T14:09:49.682Z,96340.44
2022-11-16T14:11:57.479Z,96333.84
2022-11-16T14:14:08.578Z,96330.28
2022-11-16T14:16:47.170Z,96323.88
2022-11-16T14:18:59.390Z,96325.53
2022-11-16T14:21:18.927Z,96330.59
2022-11-16T14:23:51.928Z,96326.47
2022-11-16T14:26:10.802Z,96318.47
2022-11-16T14:28:42.348Z,96308.31
2022-11-16T14:31:03.233Z,96307.16
2022-11-16T14:33:18.067Z,96305.22
2022-11-16T14:35:33.938Z,96305.91
2022-11-16T14:37:44.656Z,96305.84
2022-11-16T14:39:54.851Z,96303.28
2022-11-16T14:42:05.677Z,96298.66
2022-11-16T14:44:14.364Z,96301.25
2022-11-16T14:46:26.283Z,96294.94
2022-11-16T14:48:35.981Z,96293.53
2022-11-16T14:50:49.982Z,96294.97
2022-11-16T14:53:01.565Z,96301.59
2022-11-16T14:55:12.637Z,96286.31
2022-11-16T14:57:22.993Z,96283.66
2022-11-16T14:59:32.783Z,96287.88
2022-11-16T15:01:42.747Z,96280.88
2022-11-16T15:03:56.378Z,96281.13
2022-11-16T15:06:09.987Z,96274.84
2022-11-16T15:08:22.237Z,96278.34
2022-11-16T15:10:32.097Z,96283.66
2022-11-16T15:12:42.092Z,96270.75
2022-11-16T15:14:52.463Z,96278.28
2022-11-16T15:17:02.315Z,96280.81
2022-11-16T15:19:15.786Z,96285.28
2022-11-16T15:21:29.303Z,96281.19
2022-11-16T15:24:15.604Z,96276.84
2022-11-16T15:26:22.476Z,96276.53
2022-11-16T15:28:33.299Z,96277.06
2022-11-16T15:30:41.769Z,96272.28
2022-11-16T15:32:51.721Z,96283.91
2022-11-16T15:35:04.977Z,96284.00
2022-11-16T15:37:17.053Z,96271.91
2022-11-16T15:39:26.737Z,96276.53
2022-11-16T15:41:35.567Z,96269.63
2022-11-16T15:44:11.716Z,96266.53
2022-11-16T15:46:22.493Z,96259.91
2022-11-16T15:48:31.615Z,96255.50
2022-11-16T15:50:39.671Z,96256.78
2022-11-16T15:52:55.262Z,96254.22
2022-11-16T15:55:10.512Z,96246.22
2022-11-16T15:57:23.525Z,96257.22
2022-11-16T15:59:34.425Z,96257.03
2022-11-16T16:01:45.593Z,96260.66
2022-11-16T16:03:58.278Z,96266.94
2022-11-16T16:06:08.697Z,96261.50
2022-11-16T16:08:34.860Z,96258.41
2022-11-16T16:10:42.773Z,96256.19
2022-11-16T16:12:53.159Z,96259.97
2022-11-16T16:15:25.723Z,96250.47
2022-11-16T16:17:34.137Z,96250.88
2022-11-16T16:19:44.892Z,96238.72
2022-11-16T16:21:53.589Z,96253.19
2022-11-16T16:24:05.365Z,96265.47
2022-11-16T16:26:13.226Z,96258.78
2022-11-16T16:28:21.373Z,96265.28
2022-11-16T16:30:30.821Z,96263.28
2022-11-16T16:32:40.763Z,96261.72
2022-11-16T16:34:48.638Z,96254.72
2022-11-16T16:36:56.765Z,96245.59
2022-11-16T16:39:07.431Z,96254.75
2022-11-16T16:41:24.518Z,96253.09
2022-11-16T16:43:35.502Z,96255.34
2022-11-16T16:45:45.761Z,96250.91
2022-11-16T16:47:54.987Z,96254.88
2022-11-16T16:50:04.069Z,96250.97
2022-11-16T16:52:15.023Z,96249.16
2022-11-16T16:54:25.539Z,96244.25
2022-11-16T16:56:33.620Z,96235.94
2022-11-16T16:58:41.423Z,96237.19
2022-11-16T17:00:50.649Z,96232.63
2022-11-16T17:02:59.555Z,96227.56
2022-11-16T17:05:08.421Z,96227.59
2022-11-16T17:07:16.353Z,96220.28
2022-11-16T17:09:26.880Z,96224.81
2022-11-16T17:11:34.849Z,96224.47
2022-11-16T17:13:42.917Z,96213.63
2022-11-16T17:15:50.831Z,96219.91
2022-11-16T17:18:00.724Z,96227.72
2022-11-16T17:20:11.537Z,96215.34
2022-11-16T17:22:21.124Z,96213.41
2022-11-16T17:24:31.589Z,96222.41
2022-11-16T17:26:39.534Z,96214.09
2022-11-16T17:28:47.893Z,96213.34
2022-11-16T17:30:56.169Z,96224.53
2022-11-16T17:33:04.073Z,96227.22
2022-11-16T17:35:13.133Z,96222.41
2022-11-16T17:37:21.097Z,96223.63
2022-11-16T17:39:31.794Z,96212.56
2022-11-16T17:41:40.072Z,96212.56
2022-11-16T17:43:49.478Z,96204.25
2022-11-16T17:46:06.660Z,96204.97
2022-11-16T17:48:14.891Z,96196.63
2022-11-16T17:50:22.755Z,96202.41
2022-11-16T17:52:30.596Z,96194.69
2022-11-16T17:54:42.440Z,96203.22
2022-11-16T17:56:50.371Z,96194.19
2022-11-16T17:58:59.212Z,96192.16
2022-11-16T18:01:08.099Z,96189.09
2022-11-16T18:03:16.022Z,96190.22
2022-11-16T18:05:24.014Z,96201.19
2022-11-16T18:07:33.646Z,96196.00
2022-11-16T18:09:44.277Z,96196.56
2022-11-16T18:11:53.247Z,96192.38
2022-11-16T18:14:05.677Z,96192.91
2022-11-16T18:16:17.148Z,96193.25
2022-11-16T18:18:25.248Z,96190.28
2022-11-16T18:20:34.162Z,96183.88
2022-11-16T18:22:43.149Z,96187.38
2022-11-16T18:24:53.524Z,96174.75
2022-11-16T18:27:01.328Z,96174.75
2022-11-16T18:29:12.412Z,96170.53
2022-11-16T18:31:22.935Z,96164.72
2022-11-16T18:33:30.920Z,96174.63
2022-11-16T18:35:40.104Z,96171.53
2022-11-16T18:37:48.060Z,96164.09
2022-11-16T18:39:58.523Z,96154.94
2022-11-16T18:42:06.510Z,96153.13
2022-11-16T18:44:14.859Z,96140.28
2022-11-16T18:46:24.295Z,96129.00
2022-11-16T18:48:32.663Z,96123.38
2022-11-16T18:50:41.740Z,96118.94
2022-11-16T18:52:49.718Z,96112.91
2022-11-16T18:55:00.175Z,96108.34
2022-11-16T18:57:08.292Z,96106.75
2022-11-16T18:59:16.083Z,96110.88
2022-11-16T19:01:25.793Z,96116.72
2022-11-16T19:03:35.027Z,96111.81
2022-11-16T19:05:43.350Z,96110.75
2022-11-16T19:07:51.217Z,96103.66
2022-11-16T19:10:02.041Z,96094.88
2022-11-16T19:12:10.095Z,96088.28
2022-11-16T19:14:18.085Z,96090.31
2022-11-16T19:16:27.569Z,96098.50
2022-11-16T19:18:35.779Z,96092.94
2022-11-16T19:20:43.785Z,96091.75
2022-11-16T19:22:53.003Z,96091.97
2022-11-16T19:25:06.001Z,96097.97
2022-11-16T19:27:16.759Z,96095.59
2022-11-16T19:29:24.883Z,96091.84
2022-11-16T19:31:35.040Z,96085.00
2022-11-16T19:33:43.344Z,96077.91
2022-11-16T19:35:51.277Z,96078.38
2022-11-16T19:37:59.165Z,96081.13
2022-11-16T19:40:11.339Z,96090.50
2022-11-16T19:42:20.061Z,96092.19
2022-11-16T19:44:27.969Z,96091.09
2022-11-16T19:46:36.952Z,96096.28
2022-11-16T19:48:47.349Z,96097.72
2022-11-16T19:50:55.512Z,96093.50
2022-11-16T19:53:03.534Z,96094.81
2022-11-16T19:55:14.423Z,96099.75
2022-11-16T19:57:22.422Z,96095.31
2022-11-16T19:59:31.525Z,96097.31
2022-11-16T20:01:40.925Z,96107.06
2022-11-16T20:03:49.624Z,96106.06
2022-11-16T20:06:07.452Z,96102.50
2022-11-16T20:08:15.468Z,96111.25
2022-11-16T20:10:26.094Z,96115.25
2022-11-16T20:12:34.044Z,96115.47
2022-11-16T20:14:41.869Z,96116.81
2022-11-16T20:16:50.914Z,96127.03
2022-11-16T20:18:59.329Z,96110.81
2022-11-16T20:21:09.084Z,96099.03
2022-11-16T20:23:19.505Z,96089.66
2022-11-16T20:25:30.030Z,96068.75
2022-11-16T20:27:37.911Z,96057.69
2022-11-16T20:29:46.239Z,96059.13
2022-11-16T20:31:54.186Z,96050.00
2022-11-16T20:34:17.729Z,96045.09
2022-11-16T20:36:27.924Z,96045.38
2022-11-16T20:38:36.436Z,96058.31
2022-11-16T20:40:46.862Z,96052.06
2022-11-16T20:42:59.958Z,96053.88
2022-11-16T20:45:09.519Z,96048.94
2022-11-16T20:47:17.839Z,96045.38
2022-11-16T20:49:39.148Z,96045.38
2022-11-16T20:51:48.489Z,96055.94
2022-11-16T20:53:56.480Z,96057.22
2022-11-16T20:56:09.369Z,96054.09
2022-11-16T20:58:22.590Z,96046.66
2022-11-16T21:00:31.982Z,96058.31
2022-11-16T21:02:40.115Z,96052.06
2022-11-16T21:04:57.446Z,96046.91
2022-11-16T21:07:08.339Z,96044.13
2022-11-16T21:09:22.796Z,96041.75
2022-11-16T21:11:55.631Z,96031.81
2022-11-16T21:14:16.200Z,96025.91
2022-11-16T21:16:24.371Z,96020.13
2022-11-16T21:18:33.339Z,96017.00
2022-11-16T21:20:41.196Z,96020.97
2022-11-16T21:22:49.052Z,96021.09
2022-11-16T21:24:57.023Z,96017.75
2022-11-16T21:27:08.257Z,96027.34
2022-11-16T21:29:23.190Z,96024.34
2022-11-16T21:31:54.841Z,96023.25
2022-11-16T21:34:05.947Z,96028.44
2022-11-16T21:36:15.593Z,96024.81
2022-11-16T21:38:23.876Z,96026.03
2022-11-16T21:40:32.580Z,96028.53
2022-11-16T21:42:42.947Z,96030.81
2022-11-16T21:44:50.789Z,96025.31
2022-11-16T21:47:00.148Z,96021.81
2022-11-16T21:49:09.724Z,96018.94
2022-11-16T21:51:20.380Z,96015.81
2022-11-16T21:53:28.279Z,96013.66
2022-11-16T21:55:37.052Z,96012.22
2022-11-16T21:57:54.532Z,96006.69
2022-11-16T22:00:03.241Z,96002.34
2022-11-16T22:02:19.634Z,96017.38
2022-11-16T22:04:42.593Z,96016.53
2022-11-16T22:07:03.222Z,96002.00
2022-11-16T22:09:11.249Z,95996.09
2022-11-16T22:11:22.338Z,96001.38
2022-11-16T22:13:33.702Z,96000.53
2022-11-16T22:15:41.825Z,96008.56
2022-11-16T22:17:51.109Z,96020.81
2022-11-16T22:19:59.615Z,96016.03
2022-11-16T22:22:08.830Z,96016.25
2022-11-16T22:24:16.762Z,96017.56
2022-11-16T22:26:25.035Z,96013.88
2022-11-16T22:28:36.521Z,96011.59
2022-11-16T22:30:48.723Z,96000.91
2022-11-16T22:32:59.399Z,96000.88
2022-11-16T22:35:07.984Z,95991.75
2022-11-16T22:37:17.149Z,95989.66
2022-11-16T22:39:25.270Z,95995.78
2022-11-16T22:41:33.139Z,96006.00
2022-11-16T22:43:44.122Z,95991.56
2022-11-16T22:45:52.108Z,95992.69
2022-11-16T22:48:00.007Z,95988.69
2022-11-16T22:50:09.110Z,95989.91
2022-11-16T22:52:16.928Z,95981.00
2022-11-16T22:54:28.716Z,95982.34
2022-11-16T22:56:37.094Z,95975.84
2022-11-16T22:58:47.518Z,95986.38
2022-11-16T23:00:55.399Z,95974.59
2022-11-16T23:03:03.191Z,95972.22
2022-11-16T23:05:11.669Z,95962.38
2022-11-16T23:07:19.498Z,95957.31
2022-11-16T23:09:27.321Z,95968.03
2022-11-16T23:11:47.992Z,95955.28
2022-11-16T23:14:11.183Z,95956.91
2022-11-16T23:16:19.013Z,95963.31
2022-11-16T23:18:27.218Z,95960.66
2022-11-16T23:20:47.460Z,95958.59
2022-11-16T23:23:08.052Z,95957.75
2022-11-16T23:25:28.553Z,95961.06
2022-11-16T23:27:43.372Z,95961.97
2022-11-16T23:29:53.989Z,95958.00
2022-11-16T23:32:01.903Z,95952.81
2022-11-16T23:34:09.764Z,95951.75
2022-11-16T23:36:17.795Z,95943.69
2022-11-16T23:38:25.601Z,95944.00
2022-11-16T23:40:35.196Z,95948.81
2022-11-16T23:42:55.380Z,95942.88
2022-11-16T23:45:06.449Z,95941.34
2022-11-16T23:47:14.296Z,95930.84
2022-11-16T23:49:22.140Z,95927.50
2022-11-16T23:51:31.139Z,95921.25
2022-11-16T23:53:38.919Z,95921.25
2022-11-16T23:55:47.679Z,95916.69
2022-11-16T23:57:55.627Z,95909.69
